• Join FlightAware (Why Join?)
  • Login
  • US Flag 
02:21AM EDT


 

Airport Tracker/Info


-or-


 

Live Flight TrackerFlight Track Log ✈ RPA3159 ✈ 07-May-2013 ✈ KBTV - KPHL

Flight Track Log - Related Links

Times and Time Zones

All times are in EDT time to prevent confusion due to time zone crossing. See the RPA3159 flight status page for this flight to view local times or setup timezone preferences in your user account.

Time Position Orientation Groundspeed Altitude Reporting Facility
EDT Latitude Longitude Course Direction KTS MPH feet Rate Location/Type
11:24AM 44.3028 -73.1856 195° South 282 325 7,900  Level Boston Center
11:25AM 44.2400 -73.2081 194° South 282 325 10,000 2,100 Climbing Boston Center
11:26AM 44.1439 -73.2500 197° South 295 339 12,100 2,280 Climbing Boston Center
11:27AM 44.0583 -73.2836 196° South 320 368 14,600 2,280 Climbing Boston Center
11:28AM 43.9339 -73.3443 194° South  Level FlightAware Approximate
11:28AM 43.9872 -73.3144 197° South 327 376 16,700  Level Boston Center
11:29AM 43.8449 -73.3770 195° South  Level FlightAware Approximate
11:29AM 43.8639 -73.3617 195° South 348 400 19,500  Level Boston Center
11:30AM 43.7656 -73.4031 197° South 359 413 21,700 1,980 Climbing Boston Center
11:31AM 43.6653 -73.4417 196° South 375 432 23,500 1,680 Climbing Boston Center
11:32AM 43.5606 -73.4858 197° South 381 438 25,100 1,200 Climbing Boston Center
11:33AM 43.4519 -73.5269 195° South 393 452 26,000 420 Climbing Boston Center
11:34AM 43.3472 -73.5650 195° South 399 459 26,000  Level Boston Center
11:35AM 43.2425 -73.6114 198° South 399 459 26,000  Level Boston Center
11:36AM 43.1339 -73.6522 195° South 399 459 26,000  Level Boston Center
11:37AM 43.0039 -73.7064 197° South 405 466 26,000  Level Boston Center
11:38AM 42.8972 -73.7467 195° South 405 466 26,000  Level Boston Center
11:39AM 42.8008 -73.7842 196° South 405 466 26,000  Level Boston Center
11:40AM 42.7253 -73.8419 209° Southwest 400 460 26,000  Level Boston Center
11:41AM 42.6525 -73.9928 237° Southwest 393 452 26,000  Level Boston Center
11:42AM 42.5814 -74.1489 238° Southwest 401 461 26,000  Level Boston Center
11:43AM 42.5211 -74.2739 237° Southwest 407 468 26,000 -720 Level Boston Center
11:44AM 42.4936 -74.4225 256° West 399 459 24,600 -1,020 Descending Boston Center
11:45AM 42.4889 -74.5658 267° West 389 448 24,000 -420 Descending Boston Center
11:47AM 42.4819 -74.7119 266° West 395 455 23,800 -780 Descending Boston Center
11:48AM 42.3564 -74.9267 232° Southwest 340 391 21,700 -1,080 Descending New York Center
11:49AM 42.2714 -74.9744 203° Southwest 361 415 20,800 -960 Descending New York Center
11:50AM 42.1761 -75.0242 201° Southwest 366 421 19,800 -900 Descending New York Center
11:51AM 42.0742 -75.0792 202° Southwest 366 421 19,000 -420 Descending New York Center
11:52AM 41.9828 -75.1289 202° Southwest 355 409 19,000  Level New York Center
11:53AM 41.8953 -75.1928 209° Southwest 360 414 19,000  Level New York Center
11:54AM 41.8200 -75.2547 212° Southwest 365 420 19,000 -360 Level New York Center
11:55AM 41.7342 -75.3211 210° Southwest 365 420 18,300 -1,440 Descending New York Center
11:56AM 41.6439 -75.3956 212° Southwest 360 414 16,200 -1,920 Descending New York Center
11:57AM 41.5642 -75.4592 211° Southwest 347 399 14,500 -1,740 Descending New York Center
11:58AM 41.4956 -75.5125 210° Southwest 334 384 12,800 -1,260 Descending New York Center
11:59AM 41.4181 -75.5764 212° Southwest 334 384 12,000 -420 Descending New York Center
12:00PM 41.3428 -75.6344 210° Southwest 329 379 12,000  Level New York Center
12:01PM 41.2553 -75.6861 204° Southwest 329 379 12,000  Level New York Center
12:02PM 41.1739 -75.6886 181° South 301 346 12,000  Level New York Center
12:03PM 41.0867 -75.6822 177° South 306 352 12,000  Level New York Center
12:04PM 41.0169 -75.6525 162° South 306 352 12,000  Level New York Center
12:05PM 40.9267 -75.6183 164° South 312 359 12,000  Level New York Center
12:06PM 40.8447 -75.5878 164° South 312 359 12,000  Level New York Center
12:07PM 40.7625 -75.5547 163° South 312 359 12,000  Level New York Center
12:08PM 40.6806 -75.5217 163° South 312 359 12,000  Level New York Center
12:09PM 40.5986 -75.4886 163° South 312 359 12,000 -360 Level New York Center
12:10PM 40.5206 -75.4586 164° South 312 359 11,300 -1,020 Descending New York Center
12:11PM 40.4425 -75.4289 164° South 307 353 10,000 -720 Descending New York Center
12:12PM 40.3814 -75.3919 155° Southeast 281 323 10,000 -840 Level New York Center
12:13PM 40.3081 -75.3489 156° South 263 303 8,400 -1,680 Descending New York Center
12:14PM 40.2394 -75.3472 179° South 257 296 6,600 -1,200 Descending New York Center
12:15PM 40.1717 -75.3781 199° South 268 308 6,000 -360 Descending New York Center
12:16PM 40.0969 -75.4164 201° Southwest 273 314 6,000  Level New York Center
12:17PM 40.0356 -75.4450 200° South 273 314 6,000  Level New York Center
12:18PM 39.9803 -75.4708 200° South 216 249 6,000  Level New York Center
12:19PM 39.9356 -75.4950 203° Southwest 188 216 6,000  Level New York Center
12:20PM 39.8983 -75.5386 222° Southwest 178 205 6,000 -480 Level New York Center
12:21PM 39.8853 -75.6000 255° West 183 211 5,100 -540 Descending New York Center
12:22PM 39.8619 -75.6658 245° Southwest 201 231 5,000 -360 Descending New York Center
12:25PM 39.8167 -75.5667 121° Southeast 158 182 4,000 -600 Descending Philadelphia TRACON
12:26PM 39.8167 -75.5000 90° East 162 186 3,200 -600 Descending Philadelphia TRACON
12:27PM 39.8333 -75.4500 67° East 157 181 2,800 -660 Descending Philadelphia TRACON
12:28PM 39.8333 -75.4000 90° East 157 181 1,900 -900 Descending Philadelphia TRACON
12:29PM 39.8500 -75.3500 67° East 157 181 1,100 -780 Descending Philadelphia TRACON
12:30PM 39.8500 -75.3000 90° East 117 135 400 -660 Descending Philadelphia TRACON
12:32PM 39.8722 -75.2409 247° West  Level Estimated